Denver, Colorado
Traffic Map
Current Weather Conditions
Denver, Colorado
Broken Clouds
Broken Clouds
74°
Feels Like: 74°
Wind Chill: 74° Ceiling: 22000
Heat Index: 74° Visibility: 10mi
Dew Point: 27° Wind: 8mph
Humidity: 17% Direction: 210° (SSW)
Pressure: 30.22in Gusts: 0mph
Raw Report DataKBKF 241758Z 21007KT 10SM FEW110 BKN220 24/M03 A3022 RMK AO2A SLP167 T02361029 10236 20126 50000
Traffic Incident Summary
Active as of:
Severity:
Category:
InformationThere was an issue retrieving the traffic information for this location. Please try a different location or try again shortly.
Advertisements
Track Severe Weather on mobile